Details From CYLW - Kelowna
To KIDA - KIDA
Flight Number -
Tags decoded
Created
Modified
Stats Distance 503 nm / 931 km
Max Altitude 0 ft / 0 m
Waypoints 4
Social Downloads 2
Likes 0
Share VATSIM

Download

Looking for another format? Having issues loading an existing format? Contact us
Advertisement - Login to hide

Notes

Requested: CYLW GEG J52 DBS KIDA Unmatched points: J52

Route

CYLW GEG DBS KIDA

ID Type Via Altitude Latitude Longitude Leg Dist Tot Dist Heading (true) Name
O CYLW APT - 0 ft / 0 m 49.95612˚ -119.37776˚ - 0 nm - Kelowna
GEG VOR - 0 ft / 0 m 47.56494˚ -117.62689˚ 159 nm 159 nm 154° / 155° SPOKANE VORTAC
DBS VOR - 0 ft / 0 m 44.08886˚ -112.20933˚ 308 nm 467 nm 131° / 135° DUBOIS VORTAC
O KIDA APT - 0 ft / 0 m 43.51464˚ -112.06831˚ 35 nm 502 nm 170° / 170° KIDA

Altitude Profile

Advertisement - Login to hide

Weather


0- 5 10 15 20 25 30 35+ Temperature / ° C

Clouds and Precipitation
Forecast for 2018-05-23 00:00 UTC. Updated 2 hours ago

Ground ~20,000 ft ~40,000 ft Winds

CYLW

Details ICAO CYLW (YLW)
Name Kelowna
Region Canada
Timezone America/Vancouver (UTC-7.0)
Stats Elevation 1,409 ft / 429 m (AMSL)
Location 49.956117° -119.377757°
Runways 1
Magnetic Variation 15.566° E

METAR

CYLW 230100Z AUTO 36006KT 340V070 9SM CLR 29/10 A2978 RMK SLP084 DENSITY ALT 3400FT

Decode

TAF

TAF CYLW 230038Z 2301/2313 VRB03KT P6SM FEW070 RMK FCST BASED ON AUTO OBS. NXT FCST BY 230700Z

Decode

Departure Runways

ID Width Length Bearing (true) Bearing (mag) Surface Threshold Offset Overrun Length
16 200 ft / 61 m 7,299 ft / 2,225 m 174.89° 159.32° Asphalt 0 ft / 0 m 0 ft / 0 m
34 200 ft / 61 m 7,299 ft / 2,225 m 354.89° 339.32° Asphalt 0 ft / 0 m 0 ft / 0 m

KIDA

Details ICAO KIDA (IDA)
Name KIDA
Region United States
Timezone America/Boise (UTC-6.0)
Stats Elevation 4,744 ft / 1,446 m (AMSL)
Location 43.514641° -112.068307°
Runways 2
Magnetic Variation 11.876° E

METAR

KIDA 230053Z 14014KT 10SM BKN090 19/07 A2990 RMK AO2 PK WND 15030/0009 SLP098 T01940067

Decode

TAF

KIDA 222333Z 2300/2324 15010G20KT P6SM VCSH FEW100 SCT160 FM230600 04006KT P6SM -SHRA SCT050 BKN070 OVC110 FM231300 17008KT 6SM -SHRA BR BKN025 OVC080

Decode

Destination Runways

ID Width Length Bearing (true) Bearing (mag) Surface Threshold Offset Overrun Length
17 150 ft / 46 m 4,054 ft / 1,236 m 1.91° 350.03° Asphalt 0 ft / 0 m 0 ft / 0 m
2 150 ft / 46 m 8,997 ft / 2,742 m 37.91° 26.03° Asphalt 0 ft / 0 m 0 ft / 0 m
20 150 ft / 46 m 8,997 ft / 2,742 m 217.92° 206.04° Asphalt 0 ft / 0 m 0 ft / 0 m
35 150 ft / 46 m 4,054 ft / 1,236 m 181.91° 170.03° Asphalt 0 ft / 0 m 0 ft / 0 m

Approach Navaids

Runway Type Ident Frequency Range Bearing (true) Bearing (mag) Slope Elevation
20 Localiser IIDA 111.10 MHz 18 nm / 33 km 217.90° 206.03° - 4,731 ft / 1,442 m (AMSL)
20 Glidescope IIDA 111.10 MHz 10 nm / 19 km 217.91° 206.04° 3.00° 4,734 ft / 1,443 m (AMSL)
20 DME IIDA 111.10 MHz 18 nm / 33 km - - - 4,742 ft / 1,445 m (AMSL)

Popular Alternatives